sensor_id;sensor_type;location;lat;lon;timestamp;P1;durP1;ratioP1;P2;durP2;ratioP2
16522;SDS011;19889;52.546;13.348;2024-03-07T00:00:13;49.80;;;24.07;;
16522;SDS011;19889;52.546;13.348;2024-03-07T00:02:42;49.27;;;22.83;;
16522;SDS011;19889;52.546;13.348;2024-03-07T00:05:10;46.10;;;22.97;;
16522;SDS011;19889;52.546;13.348;2024-03-07T00:07:38;59.30;;;23.93;;
16522;SDS011;19889;52.546;13.348;2024-03-07T00:10:05;48.57;;;20.60;;
16522;SDS011;19889;52.546;13.348;2024-03-07T00:12:33;49.90;;;21.90;;
16522;SDS011;19889;52.546;13.348;2024-03-07T00:15:03;48.63;;;22.27;;
16522;SDS011;19889;52.546;13.348;2024-03-07T00:17:31;48.37;;;23.10;;
16522;SDS011;19889;52.546;13.348;2024-03-07T00:19:59;54.87;;;24.07;;
16522;SDS011;19889;52.546;13.348;2024-03-07T00:22:27;45.57;;;21.47;;
16522;SDS011;19889;52.546;13.348;2024-03-07T00:24:55;41.90;;;19.90;;
16522;SDS011;19889;52.546;13.348;2024-03-07T00:27:22;46.43;;;20.80;;
16522;SDS011;19889;52.546;13.348;2024-03-07T00:29:51;51.50;;;23.13;;
16522;SDS011;19889;52.546;13.348;2024-03-07T00:32:20;50.90;;;21.83;;
16522;SDS011;19889;52.546;13.348;2024-03-07T00:34:49;48.47;;;22.00;;
16522;SDS011;19889;52.546;13.348;2024-03-07T00:37:16;52.93;;;22.77;;
16522;SDS011;19889;52.546;13.348;2024-03-07T00:39:44;44.50;;;21.80;;
16522;SDS011;19889;52.546;13.348;2024-03-07T00:42:11;47.87;;;21.50;;
16522;SDS011;19889;52.546;13.348;2024-03-07T00:44:38;45.43;;;20.03;;
16522;SDS011;19889;52.546;13.348;2024-03-07T00:47:06;46.07;;;21.93;;
16522;SDS011;19889;52.546;13.348;2024-03-07T00:49:34;50.97;;;22.67;;
16522;SDS011;19889;52.546;13.348;2024-03-07T00:52:01;49.20;;;20.30;;
16522;SDS011;19889;52.546;13.348;2024-03-07T00:54:29;42.27;;;20.53;;
16522;SDS011;19889;52.546;13.348;2024-03-07T00:56:56;44.83;;;22.57;;
16522;SDS011;19889;52.546;13.348;2024-03-07T00:59:23;49.97;;;21.60;;
16522;SDS011;19889;52.546;13.348;2024-03-07T01:01:50;47.43;;;22.00;;
16522;SDS011;19889;52.546;13.348;2024-03-07T01:04:17;41.40;;;21.73;;
16522;SDS011;19889;52.546;13.348;2024-03-07T01:06:46;48.30;;;21.77;;
16522;SDS011;19889;52.546;13.348;2024-03-07T01:09:13;47.73;;;21.70;;
16522;SDS011;19889;52.546;13.348;2024-03-07T01:11:42;54.23;;;22.43;;
16522;SDS011;19889;52.546;13.348;2024-03-07T01:14:10;54.50;;;23.53;;
16522;SDS011;19889;52.546;13.348;2024-03-07T01:16:38;47.87;;;22.57;;
16522;SDS011;19889;52.546;13.348;2024-03-07T01:19:06;47.60;;;21.23;;
16522;SDS011;19889;52.546;13.348;2024-03-07T01:21:33;45.93;;;22.47;;
16522;SDS011;19889;52.546;13.348;2024-03-07T01:24:02;45.93;;;22.10;;
16522;SDS011;19889;52.546;13.348;2024-03-07T01:26:29;47.53;;;20.97;;
16522;SDS011;19889;52.546;13.348;2024-03-07T01:28:58;40.97;;;18.43;;
16522;SDS011;19889;52.546;13.348;2024-03-07T01:31:26;42.57;;;20.67;;
16522;SDS011;19889;52.546;13.348;2024-03-07T01:33:53;50.80;;;22.07;;
16522;SDS011;19889;52.546;13.348;2024-03-07T01:36:20;46.70;;;20.37;;
16522;SDS011;19889;52.546;13.348;2024-03-07T01:38:48;44.20;;;21.17;;
16522;SDS011;19889;52.546;13.348;2024-03-07T01:41:16;52.47;;;22.87;;
16522;SDS011;19889;52.546;13.348;2024-03-07T01:43:44;51.17;;;25.00;;
16522;SDS011;19889;52.546;13.348;2024-03-07T01:46:11;59.00;;;26.43;;
16522;SDS011;19889;52.546;13.348;2024-03-07T01:48:39;53.20;;;23.57;;
16522;SDS011;19889;52.546;13.348;2024-03-07T01:51:06;45.13;;;23.60;;
16522;SDS011;19889;52.546;13.348;2024-03-07T01:53:34;54.10;;;24.03;;
16522;SDS011;19889;52.546;13.348;2024-03-07T01:56:02;49.23;;;24.33;;
16522;SDS011;19889;52.546;13.348;2024-03-07T01:58:32;47.70;;;22.70;;
16522;SDS011;19889;52.546;13.348;2024-03-07T02:01:01;50.83;;;23.97;;
16522;SDS011;19889;52.546;13.348;2024-03-07T02:03:29;52.27;;;25.13;;
16522;SDS011;19889;52.546;13.348;2024-03-07T02:05:56;53.73;;;27.27;;
16522;SDS011;19889;52.546;13.348;2024-03-07T02:08:23;53.67;;;24.40;;
16522;SDS011;19889;52.546;13.348;2024-03-07T02:10:51;50.23;;;24.10;;
16522;SDS011;19889;52.546;13.348;2024-03-07T02:13:18;62.67;;;26.80;;
16522;SDS011;19889;52.546;13.348;2024-03-07T02:15:47;52.17;;;24.47;;
16522;SDS011;19889;52.546;13.348;2024-03-07T02:18:14;47.80;;;22.90;;
16522;SDS011;19889;52.546;13.348;2024-03-07T02:20:44;42.40;;;20.73;;
16522;SDS011;19889;52.546;13.348;2024-03-07T02:23:11;38.30;;;20.40;;
16522;SDS011;19889;52.546;13.348;2024-03-07T02:25:39;35.20;;;19.90;;
16522;SDS011;19889;52.546;13.348;2024-03-07T02:28:07;35.63;;;19.73;;
16522;SDS011;19889;52.546;13.348;2024-03-07T02:30:34;39.20;;;20.37;;
16522;SDS011;19889;52.546;13.348;2024-03-07T02:33:02;38.10;;;20.40;;
16522;SDS011;19889;52.546;13.348;2024-03-07T02:35:33;35.23;;;19.23;;
16522;SDS011;19889;52.546;13.348;2024-03-07T02:38:03;44.67;;;23.43;;
16522;SDS011;19889;52.546;13.348;2024-03-07T02:40:30;44.43;;;22.03;;
16522;SDS011;19889;52.546;13.348;2024-03-07T02:42:59;46.40;;;21.70;;
16522;SDS011;19889;52.546;13.348;2024-03-07T02:45:28;42.27;;;21.43;;
16522;SDS011;19889;52.546;13.348;2024-03-07T02:47:56;40.13;;;20.73;;
16522;SDS011;19889;52.546;13.348;2024-03-07T02:50:24;48.43;;;22.63;;
16522;SDS011;19889;52.546;13.348;2024-03-07T02:52:53;45.33;;;21.77;;
16522;SDS011;19889;52.546;13.348;2024-03-07T02:55:21;43.23;;;22.30;;
16522;SDS011;19889;52.546;13.348;2024-03-07T02:57:49;40.37;;;20.90;;
16522;SDS011;19889;52.546;13.348;2024-03-07T03:00:18;43.87;;;19.63;;
16522;SDS011;19889;52.546;13.348;2024-03-07T03:02:52;48.53;;;22.07;;
16522;SDS011;19889;52.546;13.348;2024-03-07T03:05:21;45.83;;;23.07;;
16522;SDS011;19889;52.546;13.348;2024-03-07T03:07:49;40.87;;;22.10;;
16522;SDS011;19889;52.546;13.348;2024-03-07T03:10:21;43.57;;;21.60;;
16522;SDS011;19889;52.546;13.348;2024-03-07T03:12:52;47.27;;;23.33;;
16522;SDS011;19889;52.546;13.348;2024-03-07T03:15:23;49.27;;;24.47;;
16522;SDS011;19889;52.546;13.348;2024-03-07T03:17:51;43.73;;;22.37;;
16522;SDS011;19889;52.546;13.348;2024-03-07T03:20:24;45.57;;;22.03;;
16522;SDS011;19889;52.546;13.348;2024-03-07T03:23:17;46.67;;;23.40;;
16522;SDS011;19889;52.546;13.348;2024-03-07T03:26:07;44.63;;;23.87;;
16522;SDS011;19889;52.546;13.348;2024-03-07T03:28:36;45.70;;;23.17;;
16522;SDS011;19889;52.546;13.348;2024-03-07T03:31:07;49.50;;;24.13;;
16522;SDS011;19889;52.546;13.348;2024-03-07T03:33:35;49.80;;;24.40;;
16522;SDS011;19889;52.546;13.348;2024-03-07T03:36:02;51.30;;;25.13;;
16522;SDS011;19889;52.546;13.348;2024-03-07T03:38:30;51.33;;;23.30;;
16522;SDS011;19889;52.546;13.348;2024-03-07T03:40:57;51.13;;;23.23;;
16522;SDS011;19889;52.546;13.348;2024-03-07T03:43:26;55.83;;;26.07;;
16522;SDS011;19889;52.546;13.348;2024-03-07T03:45:53;51.87;;;25.10;;
16522;SDS011;19889;52.546;13.348;2024-03-07T03:48:21;53.13;;;26.07;;
16522;SDS011;19889;52.546;13.348;2024-03-07T03:50:48;52.57;;;25.37;;
16522;SDS011;19889;52.546;13.348;2024-03-07T03:53:16;45.20;;;23.33;;
16522;SDS011;19889;52.546;13.348;2024-03-07T03:55:43;46.83;;;25.07;;
16522;SDS011;19889;52.546;13.348;2024-03-07T03:58:11;52.73;;;24.70;;
16522;SDS011;19889;52.546;13.348;2024-03-07T04:00:40;50.63;;;25.77;;
16522;SDS011;19889;52.546;13.348;2024-03-07T04:03:07;47.57;;;23.43;;
16522;SDS011;19889;52.546;13.348;2024-03-07T04:05:34;43.83;;;24.57;;
16522;SDS011;19889;52.546;13.348;2024-03-07T04:08:02;49.50;;;23.83;;
16522;SDS011;19889;52.546;13.348;2024-03-07T04:10:30;43.80;;;23.07;;
16522;SDS011;19889;52.546;13.348;2024-03-07T04:12:58;45.57;;;23.07;;
16522;SDS011;19889;52.546;13.348;2024-03-07T04:15:58;41.83;;;22.13;;
16522;SDS011;19889;52.546;13.348;2024-03-07T04:18:37;48.97;;;23.53;;
16522;SDS011;19889;52.546;13.348;2024-03-07T04:21:12;46.87;;;24.50;;
16522;SDS011;19889;52.546;13.348;2024-03-07T04:23:47;45.73;;;23.73;;
16522;SDS011;19889;52.546;13.348;2024-03-07T04:26:17;45.63;;;22.83;;
16522;SDS011;19889;52.546;13.348;2024-03-07T04:28:47;49.87;;;24.00;;
16522;SDS011;19889;52.546;13.348;2024-03-07T04:31:19;49.00;;;24.10;;
16522;SDS011;19889;52.546;13.348;2024-03-07T04:33:52;50.77;;;25.43;;
16522;SDS011;19889;52.546;13.348;2024-03-07T04:36:22;48.23;;;23.27;;
16522;SDS011;19889;52.546;13.348;2024-03-07T04:38:53;45.97;;;23.83;;
16522;SDS011;19889;52.546;13.348;2024-03-07T04:41:24;44.87;;;23.97;;
16522;SDS011;19889;52.546;13.348;2024-03-07T04:43:51;47.57;;;24.90;;
16522;SDS011;19889;52.546;13.348;2024-03-07T04:46:23;43.63;;;24.50;;
16522;SDS011;19889;52.546;13.348;2024-03-07T04:48:52;41.20;;;23.03;;
16522;SDS011;19889;52.546;13.348;2024-03-07T04:51:20;41.57;;;23.27;;
16522;SDS011;19889;52.546;13.348;2024-03-07T04:53:48;40.23;;;21.50;;
16522;SDS011;19889;52.546;13.348;2024-03-07T04:56:16;41.57;;;21.77;;
16522;SDS011;19889;52.546;13.348;2024-03-07T04:58:43;43.50;;;21.27;;
16522;SDS011;19889;52.546;13.348;2024-03-07T05:01:10;38.33;;;20.70;;
16522;SDS011;19889;52.546;13.348;2024-03-07T05:03:39;36.70;;;20.63;;
16522;SDS011;19889;52.546;13.348;2024-03-07T05:06:07;44.00;;;22.13;;
16522;SDS011;19889;52.546;13.348;2024-03-07T05:08:34;38.67;;;21.03;;
16522;SDS011;19889;52.546;13.348;2024-03-07T05:11:02;31.60;;;20.37;;
16522;SDS011;19889;52.546;13.348;2024-03-07T05:13:29;34.27;;;20.73;;
16522;SDS011;19889;52.546;13.348;2024-03-07T05:15:57;39.73;;;21.00;;
16522;SDS011;19889;52.546;13.348;2024-03-07T05:18:24;39.23;;;22.97;;
16522;SDS011;19889;52.546;13.348;2024-03-07T05:20:52;36.73;;;20.63;;
16522;SDS011;19889;52.546;13.348;2024-03-07T05:23:20;36.97;;;20.77;;
16522;SDS011;19889;52.546;13.348;2024-03-07T05:25:47;39.47;;;20.83;;
16522;SDS011;19889;52.546;13.348;2024-03-07T05:28:14;35.97;;;21.33;;
16522;SDS011;19889;52.546;13.348;2024-03-07T05:30:42;37.40;;;22.50;;
16522;SDS011;19889;52.546;13.348;2024-03-07T05:33:09;32.50;;;20.63;;
16522;SDS011;19889;52.546;13.348;2024-03-07T05:35:36;32.73;;;20.40;;
16522;SDS011;19889;52.546;13.348;2024-03-07T05:38:05;38.63;;;20.73;;
16522;SDS011;19889;52.546;13.348;2024-03-07T05:40:32;32.10;;;20.33;;
16522;SDS011;19889;52.546;13.348;2024-03-07T05:42:59;37.50;;;20.87;;
16522;SDS011;19889;52.546;13.348;2024-03-07T05:45:26;38.03;;;23.17;;
16522;SDS011;19889;52.546;13.348;2024-03-07T05:47:54;36.10;;;20.80;;
16522;SDS011;19889;52.546;13.348;2024-03-07T05:50:21;31.77;;;19.43;;
16522;SDS011;19889;52.546;13.348;2024-03-07T05:52:49;37.47;;;20.80;;
16522;SDS011;19889;52.546;13.348;2024-03-07T05:55:18;35.40;;;20.23;;
16522;SDS011;19889;52.546;13.348;2024-03-07T05:57:47;33.27;;;19.63;;
16522;SDS011;19889;52.546;13.348;2024-03-07T06:00:14;32.37;;;19.20;;
16522;SDS011;19889;52.546;13.348;2024-03-07T06:02:52;31.87;;;19.03;;
16522;SDS011;19889;52.546;13.348;2024-03-07T06:05:19;31.07;;;18.83;;
16522;SDS011;19889;52.546;13.348;2024-03-07T06:07:47;32.77;;;19.03;;
16522;SDS011;19889;52.546;13.348;2024-03-07T06:10:15;29.40;;;19.67;;
16522;SDS011;19889;52.546;13.348;2024-03-07T06:12:44;37.73;;;21.60;;
16522;SDS011;19889;52.546;13.348;2024-03-07T06:15:11;38.60;;;22.67;;
16522;SDS011;19889;52.546;13.348;2024-03-07T06:17:39;37.43;;;23.30;;
16522;SDS011;19889;52.546;13.348;2024-03-07T06:20:06;42.20;;;24.17;;
16522;SDS011;19889;52.546;13.348;2024-03-07T06:22:47;43.70;;;26.63;;
16522;SDS011;19889;52.546;13.348;2024-03-07T06:25:15;42.50;;;25.23;;
16522;SDS011;19889;52.546;13.348;2024-03-07T06:27:47;42.33;;;24.40;;
16522;SDS011;19889;52.546;13.348;2024-03-07T06:30:15;41.83;;;24.30;;
16522;SDS011;19889;52.546;13.348;2024-03-07T06:32:43;38.60;;;22.70;;
16522;SDS011;19889;52.546;13.348;2024-03-07T06:35:10;37.93;;;22.50;;
16522;SDS011;19889;52.546;13.348;2024-03-07T06:37:37;36.10;;;20.70;;
16522;SDS011;19889;52.546;13.348;2024-03-07T06:40:05;29.23;;;18.67;;
16522;SDS011;19889;52.546;13.348;2024-03-07T06:42:36;34.43;;;19.67;;
16522;SDS011;19889;52.546;13.348;2024-03-07T06:45:06;31.47;;;19.20;;
16522;SDS011;19889;52.546;13.348;2024-03-07T06:47:34;33.50;;;20.90;;
16522;SDS011;19889;52.546;13.348;2024-03-07T06:50:01;39.03;;;21.87;;
16522;SDS011;19889;52.546;13.348;2024-03-07T06:52:29;41.47;;;22.87;;
16522;SDS011;19889;52.546;13.348;2024-03-07T06:54:56;38.23;;;21.43;;
16522;SDS011;19889;52.546;13.348;2024-03-07T06:57:23;32.00;;;19.30;;
16522;SDS011;19889;52.546;13.348;2024-03-07T06:59:50;29.67;;;18.73;;
16522;SDS011;19889;52.546;13.348;2024-03-07T07:02:20;33.30;;;19.90;;
16522;SDS011;19889;52.546;13.348;2024-03-07T07:04:47;30.50;;;18.40;;
16522;SDS011;19889;52.546;13.348;2024-03-07T07:07:15;31.27;;;18.47;;
16522;SDS011;19889;52.546;13.348;2024-03-07T07:09:43;30.77;;;18.57;;
16522;SDS011;19889;52.546;13.348;2024-03-07T07:12:10;28.03;;;17.30;;
16522;SDS011;19889;52.546;13.348;2024-03-07T07:14:37;27.43;;;16.47;;
16522;SDS011;19889;52.546;13.348;2024-03-07T07:17:04;27.33;;;16.53;;
16522;SDS011;19889;52.546;13.348;2024-03-07T07:19:33;27.83;;;16.50;;
16522;SDS011;19889;52.546;13.348;2024-03-07T07:22:00;30.40;;;15.97;;
16522;SDS011;19889;52.546;13.348;2024-03-07T07:24:28;27.03;;;16.87;;
16522;SDS011;19889;52.546;13.348;2024-03-07T07:26:59;26.57;;;15.97;;
16522;SDS011;19889;52.546;13.348;2024-03-07T07:29:27;28.87;;;17.70;;
16522;SDS011;19889;52.546;13.348;2024-03-07T07:31:54;26.93;;;16.60;;
16522;SDS011;19889;52.546;13.348;2024-03-07T07:34:22;23.53;;;14.17;;
16522;SDS011;19889;52.546;13.348;2024-03-07T07:36:50;23.90;;;15.60;;
16522;SDS011;19889;52.546;13.348;2024-03-07T07:39:18;26.07;;;16.47;;
16522;SDS011;19889;52.546;13.348;2024-03-07T07:41:45;21.73;;;14.07;;
16522;SDS011;19889;52.546;13.348;2024-03-07T07:44:13;28.80;;;15.23;;
16522;SDS011;19889;52.546;13.348;2024-03-07T07:46:40;23.67;;;15.30;;
16522;SDS011;19889;52.546;13.348;2024-03-07T07:49:07;20.70;;;14.37;;
16522;SDS011;19889;52.546;13.348;2024-03-07T07:51:34;21.33;;;14.20;;
16522;SDS011;19889;52.546;13.348;2024-03-07T07:54:03;23.90;;;15.50;;
16522;SDS011;19889;52.546;13.348;2024-03-07T07:56:30;23.30;;;14.67;;
16522;SDS011;19889;52.546;13.348;2024-03-07T07:58:57;19.47;;;13.70;;
16522;SDS011;19889;52.546;13.348;2024-03-07T08:01:25;22.60;;;13.77;;
16522;SDS011;19889;52.546;13.348;2024-03-07T08:03:52;18.80;;;12.17;;
16522;SDS011;19889;52.546;13.348;2024-03-07T08:06:20;21.67;;;13.90;;
16522;SDS011;19889;52.546;13.348;2024-03-07T08:08:47;24.00;;;14.77;;
16522;SDS011;19889;52.546;13.348;2024-03-07T08:11:16;20.50;;;14.47;;
16522;SDS011;19889;52.546;13.348;2024-03-07T08:13:44;20.27;;;14.17;;
16522;SDS011;19889;52.546;13.348;2024-03-07T08:16:13;24.60;;;15.20;;
16522;SDS011;19889;52.546;13.348;2024-03-07T08:18:40;23.47;;;15.20;;
16522;SDS011;19889;52.546;13.348;2024-03-07T08:21:07;17.63;;;12.83;;
16522;SDS011;19889;52.546;13.348;2024-03-07T08:23:35;19.40;;;13.17;;
16522;SDS011;19889;52.546;13.348;2024-03-07T08:26:03;17.85;;;12.30;;
16522;SDS011;19889;52.546;13.348;2024-03-07T08:28:32;16.70;;;11.65;;
16522;SDS011;19889;52.546;13.348;2024-03-07T08:30:59;17.92;;;12.13;;
16522;SDS011;19889;52.546;13.348;2024-03-07T08:33:26;15.65;;;11.48;;
16522;SDS011;19889;52.546;13.348;2024-03-07T08:35:53;13.80;;;11.25;;
16522;SDS011;19889;52.546;13.348;2024-03-07T08:38:20;17.25;;;12.40;;
16522;SDS011;19889;52.546;13.348;2024-03-07T08:40:48;17.70;;;11.68;;
16522;SDS011;19889;52.546;13.348;2024-03-07T08:43:15;13.50;;;10.38;;
16522;SDS011;19889;52.546;13.348;2024-03-07T08:45:43;13.60;;;11.43;;
16522;SDS011;19889;52.546;13.348;2024-03-07T08:48:11;18.50;;;11.63;;
16522;SDS011;19889;52.546;13.348;2024-03-07T08:50:38;15.82;;;12.52;;
16522;SDS011;19889;52.546;13.348;2024-03-07T08:53:06;13.70;;;10.90;;
16522;SDS011;19889;52.546;13.348;2024-03-07T08:55:34;15.75;;;11.13;;
16522;SDS011;19889;52.546;13.348;2024-03-07T08:58:01;14.77;;;9.52;;
16522;SDS011;19889;52.546;13.348;2024-03-07T09:00:30;15.30;;;11.52;;
16522;SDS011;19889;52.546;13.348;2024-03-07T09:03:01;14.93;;;10.48;;
16522;SDS011;19889;52.546;13.348;2024-03-07T09:05:29;16.73;;;10.97;;
16522;SDS011;19889;52.546;13.348;2024-03-07T09:07:58;15.83;;;10.80;;
16522;SDS011;19889;52.546;13.348;2024-03-07T09:10:25;16.57;;;11.47;;
16522;SDS011;19889;52.546;13.348;2024-03-07T09:12:55;16.07;;;11.43;;
16522;SDS011;19889;52.546;13.348;2024-03-07T09:15:22;28.27;;;15.00;;
16522;SDS011;19889;52.546;13.348;2024-03-07T09:17:49;22.47;;;13.00;;
16522;SDS011;19889;52.546;13.348;2024-03-07T09:20:19;20.73;;;11.53;;
16522;SDS011;19889;52.546;13.348;2024-03-07T09:22:46;16.10;;;10.00;;
16522;SDS011;19889;52.546;13.348;2024-03-07T09:25:14;24.30;;;11.80;;
16522;SDS011;19889;52.546;13.348;2024-03-07T09:27:44;19.27;;;11.17;;
16522;SDS011;19889;52.546;13.348;2024-03-07T09:30:11;20.73;;;11.90;;
16522;SDS011;19889;52.546;13.348;2024-03-07T09:32:40;20.47;;;10.97;;
16522;SDS011;19889;52.546;13.348;2024-03-07T09:35:08;23.30;;;13.13;;
16522;SDS011;19889;52.546;13.348;2024-03-07T09:37:40;22.90;;;13.53;;
16522;SDS011;19889;52.546;13.348;2024-03-07T09:40:08;18.07;;;11.17;;
16522;SDS011;19889;52.546;13.348;2024-03-07T09:42:37;13.63;;;9.27;;
16522;SDS011;19889;52.546;13.348;2024-03-07T09:45:10;19.33;;;10.83;;
16522;SDS011;19889;52.546;13.348;2024-03-07T09:47:42;20.70;;;12.73;;
16522;SDS011;19889;52.546;13.348;2024-03-07T09:50:12;20.93;;;11.53;;
16522;SDS011;19889;52.546;13.348;2024-03-07T09:52:41;22.20;;;13.00;;
16522;SDS011;19889;52.546;13.348;2024-03-07T09:55:10;21.20;;;12.70;;
16522;SDS011;19889;52.546;13.348;2024-03-07T09:57:37;16.53;;;11.00;;
16522;SDS011;19889;52.546;13.348;2024-03-07T10:00:05;19.20;;;10.43;;
16522;SDS011;19889;52.546;13.348;2024-03-07T10:02:41;14.70;;;9.77;;
16522;SDS011;19889;52.546;13.348;2024-03-07T10:05:09;15.43;;;10.33;;
16522;SDS011;19889;52.546;13.348;2024-03-07T10:07:43;16.13;;;10.27;;
16522;SDS011;19889;52.546;13.348;2024-03-07T10:10:11;15.50;;;9.67;;
16522;SDS011;19889;52.546;13.348;2024-03-07T10:12:38;11.90;;;8.67;;
16522;SDS011;19889;52.546;13.348;2024-03-07T10:15:05;18.90;;;10.00;;
16522;SDS011;19889;52.546;13.348;2024-03-07T10:17:35;11.97;;;8.67;;
16522;SDS011;19889;52.546;13.348;2024-03-07T10:20:03;15.37;;;9.10;;
16522;SDS011;19889;52.546;13.348;2024-03-07T10:22:35;14.70;;;10.70;;
16522;SDS011;19889;52.546;13.348;2024-03-07T10:25:04;16.80;;;9.70;;
16522;SDS011;19889;52.546;13.348;2024-03-07T10:27:33;15.73;;;9.87;;
16522;SDS011;19889;52.546;13.348;2024-03-07T10:30:04;13.57;;;9.70;;
16522;SDS011;19889;52.546;13.348;2024-03-07T10:32:33;10.50;;;8.50;;
16522;SDS011;19889;52.546;13.348;2024-03-07T10:35:01;16.67;;;9.83;;
16522;SDS011;19889;52.546;13.348;2024-03-07T10:37:34;15.07;;;9.70;;
16522;SDS011;19889;52.546;13.348;2024-03-07T10:40:02;14.87;;;9.70;;
16522;SDS011;19889;52.546;13.348;2024-03-07T10:42:42;14.10;;;10.00;;
16522;SDS011;19889;52.546;13.348;2024-03-07T10:45:12;15.20;;;9.33;;
16522;SDS011;19889;52.546;13.348;2024-03-07T10:47:43;16.73;;;9.53;;
16522;SDS011;19889;52.546;13.348;2024-03-07T10:50:16;16.17;;;10.80;;
16522;SDS011;19889;52.546;13.348;2024-03-07T10:52:54;15.37;;;9.43;;
16522;SDS011;19889;52.546;13.348;2024-03-07T10:55:30;19.87;;;11.27;;
16522;SDS011;19889;52.546;13.348;2024-03-07T10:58:02;27.60;;;16.50;;
16522;SDS011;19889;52.546;13.348;2024-03-07T11:00:34;21.13;;;12.77;;
16522;SDS011;19889;52.546;13.348;2024-03-07T11:03:04;17.90;;;10.77;;
16522;SDS011;19889;52.546;13.348;2024-03-07T11:05:33;13.70;;;9.87;;
16522;SDS011;19889;52.546;13.348;2024-03-07T11:08:01;13.17;;;8.50;;
16522;SDS011;19889;52.546;13.348;2024-03-07T11:10:34;10.63;;;8.73;;
16522;SDS011;19889;52.546;13.348;2024-03-07T11:13:02;12.03;;;8.10;;
16522;SDS011;19889;52.546;13.348;2024-03-07T11:15:30;11.53;;;7.90;;
16522;SDS011;19889;52.546;13.348;2024-03-07T11:17:59;12.13;;;9.13;;
16522;SDS011;19889;52.546;13.348;2024-03-07T11:20:27;11.60;;;8.03;;
16522;SDS011;19889;52.546;13.348;2024-03-07T11:23:02;16.80;;;10.67;;
16522;SDS011;19889;52.546;13.348;2024-03-07T11:25:55;12.73;;;10.00;;
16522;SDS011;19889;52.546;13.348;2024-03-07T11:28:32;23.60;;;15.10;;
16522;SDS011;19889;52.546;13.348;2024-03-07T11:31:09;18.70;;;10.90;;
16522;SDS011;19889;52.546;13.348;2024-03-07T11:33:38;11.77;;;9.23;;
16522;SDS011;19889;52.546;13.348;2024-03-07T11:36:09;13.43;;;9.07;;
16522;SDS011;19889;52.546;13.348;2024-03-07T11:38:37;11.93;;;8.40;;
16522;SDS011;19889;52.546;13.348;2024-03-07T11:41:06;12.17;;;8.87;;
16522;SDS011;19889;52.546;13.348;2024-03-07T11:43:33;13.03;;;8.77;;
16522;SDS011;19889;52.546;13.348;2024-03-07T11:46:01;14.03;;;9.43;;
16522;SDS011;19889;52.546;13.348;2024-03-07T11:48:38;13.73;;;9.17;;
16522;SDS011;19889;52.546;13.348;2024-03-07T11:51:06;13.73;;;9.27;;
16522;SDS011;19889;52.546;13.348;2024-03-07T11:53:36;14.70;;;9.93;;
16522;SDS011;19889;52.546;13.348;2024-03-07T11:56:06;12.70;;;9.13;;
16522;SDS011;19889;52.546;13.348;2024-03-07T11:58:37;14.03;;;9.30;;
16522;SDS011;19889;52.546;13.348;2024-03-07T12:01:07;26.67;;;17.43;;
16522;SDS011;19889;52.546;13.348;2024-03-07T12:03:38;18.07;;;12.83;;
16522;SDS011;19889;52.546;13.348;2024-03-07T12:06:06;15.47;;;10.70;;
16522;SDS011;19889;52.546;13.348;2024-03-07T12:08:37;12.33;;;8.90;;
16522;SDS011;19889;52.546;13.348;2024-03-07T12:11:08;14.07;;;9.90;;
16522;SDS011;19889;52.546;13.348;2024-03-07T12:13:40;15.00;;;10.90;;
16522;SDS011;19889;52.546;13.348;2024-03-07T12:16:08;19.33;;;11.30;;
16522;SDS011;19889;52.546;13.348;2024-03-07T12:18:35;12.43;;;9.00;;
16522;SDS011;19889;52.546;13.348;2024-03-07T12:21:03;11.77;;;9.27;;
16522;SDS011;19889;52.546;13.348;2024-03-07T12:23:34;15.03;;;10.30;;
16522;SDS011;19889;52.546;13.348;2024-03-07T12:26:01;20.43;;;12.77;;
16522;SDS011;19889;52.546;13.348;2024-03-07T12:28:30;12.67;;;9.30;;
16522;SDS011;19889;52.546;13.348;2024-03-07T12:30:58;11.70;;;8.90;;
16522;SDS011;19889;52.546;13.348;2024-03-07T12:33:28;18.13;;;10.87;;
16522;SDS011;19889;52.546;13.348;2024-03-07T12:35:57;12.80;;;9.37;;
16522;SDS011;19889;52.546;13.348;2024-03-07T12:38:31;16.17;;;10.47;;
16522;SDS011;19889;52.546;13.348;2024-03-07T12:41:04;15.20;;;9.73;;
16522;SDS011;19889;52.546;13.348;2024-03-07T12:43:34;10.80;;;8.73;;
16522;SDS011;19889;52.546;13.348;2024-03-07T12:46:01;11.17;;;8.10;;
16522;SDS011;19889;52.546;13.348;2024-03-07T12:48:30;13.07;;;8.97;;
16522;SDS011;19889;52.546;13.348;2024-03-07T12:50:58;12.47;;;9.33;;
16522;SDS011;19889;52.546;13.348;2024-03-07T12:53:26;13.77;;;9.73;;
16522;SDS011;19889;52.546;13.348;2024-03-07T12:55:54;16.43;;;10.63;;
16522;SDS011;19889;52.546;13.348;2024-03-07T12:58:21;11.63;;;9.47;;
16522;SDS011;19889;52.546;13.348;2024-03-07T13:00:52;15.27;;;10.17;;
16522;SDS011;19889;52.546;13.348;2024-03-07T13:03:20;12.33;;;9.37;;
16522;SDS011;19889;52.546;13.348;2024-03-07T13:05:48;10.73;;;8.47;;
16522;SDS011;19889;52.546;13.348;2024-03-07T13:08:15;15.83;;;9.87;;
16522;SDS011;19889;52.546;13.348;2024-03-07T13:10:42;17.03;;;11.57;;
16522;SDS011;19889;52.546;13.348;2024-03-07T13:13:10;13.27;;;9.90;;
16522;SDS011;19889;52.546;13.348;2024-03-07T13:15:37;13.33;;;9.13;;
16522;SDS011;19889;52.546;13.348;2024-03-07T13:18:06;11.93;;;9.73;;
16522;SDS011;19889;52.546;13.348;2024-03-07T13:20:34;13.40;;;9.90;;
16522;SDS011;19889;52.546;13.348;2024-03-07T13:23:02;13.37;;;10.93;;
16522;SDS011;19889;52.546;13.348;2024-03-07T13:25:30;14.77;;;10.50;;
16522;SDS011;19889;52.546;13.348;2024-03-07T13:28:05;18.87;;;12.10;;
16522;SDS011;19889;52.546;13.348;2024-03-07T13:30:38;14.53;;;10.53;;
16522;SDS011;19889;52.546;13.348;2024-03-07T13:33:08;18.13;;;11.90;;
16522;SDS011;19889;52.546;13.348;2024-03-07T13:35:37;19.63;;;11.57;;
16522;SDS011;19889;52.546;13.348;2024-03-07T13:38:05;17.27;;;12.93;;
16522;SDS011;19889;52.546;13.348;2024-03-07T13:40:33;17.83;;;11.73;;
16522;SDS011;19889;52.546;13.348;2024-03-07T13:43:04;16.83;;;11.77;;
16522;SDS011;19889;52.546;13.348;2024-03-07T13:45:32;15.67;;;10.87;;
16522;SDS011;19889;52.546;13.348;2024-03-07T13:48:04;17.80;;;11.57;;
16522;SDS011;19889;52.546;13.348;2024-03-07T13:50:33;16.70;;;11.93;;
16522;SDS011;19889;52.546;13.348;2024-03-07T13:53:03;22.27;;;14.77;;
16522;SDS011;19889;52.546;13.348;2024-03-07T13:55:32;27.97;;;17.10;;
16522;SDS011;19889;52.546;13.348;2024-03-07T13:58:17;23.73;;;13.57;;
16522;SDS011;19889;52.546;13.348;2024-03-07T14:01:00;19.83;;;11.60;;
16522;SDS011;19889;52.546;13.348;2024-03-07T14:06:54;18.57;;;10.73;;
16522;SDS011;19889;52.546;13.348;2024-03-07T14:09:42;14.97;;;9.90;;
16522;SDS011;19889;52.546;13.348;2024-03-07T14:12:25;17.20;;;11.37;;
16522;SDS011;19889;52.546;13.348;2024-03-07T14:18:30;21.50;;;13.67;;
16522;SDS011;19889;52.546;13.348;2024-03-07T14:21:47;21.10;;;13.07;;
16522;SDS011;19889;52.546;13.348;2024-03-07T14:24:37;14.43;;;10.83;;
16522;SDS011;19889;52.546;13.348;2024-03-07T14:27:32;16.37;;;10.60;;
16522;SDS011;19889;52.546;13.348;2024-03-07T14:33:05;17.17;;;10.50;;